Time;durP1;ratioP1;P1;durP2;ratioP2;P2;SDS_P1;SDS_P2;PMS_P1;PMS_P2;Temp;Humidity;BMP_temperature;BMP_pressure;BME280_temperature;BME280_humidity;BME280_pressure;Samples;Min_cycle;Max_cycle;Signal;HPM_P1;HPM_P2
2022/04/28 00:00:57;;;;;;;14.05;9.649999;;;;;;;3.62;69.65723;95945.73;;;;
2022/04/28 00:01:57;;;;;;;14.05;9.649999;;;;;;;3.62;69.65723;95945.73;;;;
2022/04/28 00:02:58;;;;;;;14.05;9.649999;;;;;;;3.62;69.65723;95945.73;;;;
2022/04/28 00:03:58;;;;;;;14.05;9.649999;;;;;;;3.62;69.65723;95945.73;;;;
2022/04/28 00:04:59;;;;;;;14.05;9.649999;;;;;;;3.62;69.65723;95945.73;;;;
2022/04/28 00:06:00;;;;;;;17.95;11.4;;;;;;;3.44;69.98828;95936.25;;;;
2022/04/28 00:07:01;;;;;;;17.95;11.4;;;;;;;3.44;69.98828;95936.25;;;;
2022/04/28 00:08:01;;;;;;;17.95;11.4;;;;;;;3.44;69.98828;95936.25;;;;
2022/04/28 00:09:04;;;;;;;17.95;11.4;;;;;;;3.44;69.98828;95936.25;;;;
2022/04/28 00:10:06;;;;;;;17.95;11.4;;;;;;;3.44;69.98828;95936.25;;;;
2022/04/28 00:11:11;;;;;;;17.95;11.4;;;;;;;3.44;69.98828;95936.25;;;;
2022/04/28 00:12:12;;;;;;;17.95;11.4;;;;;;;3.44;69.98828;95936.25;;;;
2022/04/28 00:13:13;;;;;;;17.95;11.4;;;;;;;3.44;69.98828;95936.25;;;;
2022/04/28 00:14:13;;;;;;;17.95;11.4;;;;;;;3.44;69.98828;95936.25;;;;
2022/04/28 00:15:14;;;;;;;17.95;11.4;;;;;;;3.44;69.98828;95936.25;;;;
2022/04/28 00:16:14;;;;;;;17.95;11.4;;;;;;;3.44;69.98828;95936.25;;;;
2022/04/28 00:17:15;;;;;;;17.25;11.45;;;;;;;3.31;70.1875;95920.92;;;;
2022/04/28 00:18:15;;;;;;;17.25;11.45;;;;;;;3.31;70.1875;95920.92;;;;
2022/04/28 00:19:16;;;;;;;17.25;11.45;;;;;;;3.31;70.1875;95920.92;;;;
2022/04/28 00:20:16;;;;;;;17.25;11.45;;;;;;;3.31;70.1875;95920.92;;;;
2022/04/28 00:21:16;;;;;;;17.25;11.45;;;;;;;3.31;70.1875;95920.92;;;;
2022/04/28 00:22:17;;;;;;;17.25;11.45;;;;;;;3.31;70.1875;95920.92;;;;
2022/04/28 00:23:17;;;;;;;17.25;11.45;;;;;;;3.31;70.1875;95920.92;;;;
2022/04/28 00:24:18;;;;;;;17.25;11.45;;;;;;;3.31;70.1875;95920.92;;;;
2022/04/28 00:25:20;;;;;;;17.25;11.45;;;;;;;3.31;70.1875;95920.92;;;;
2022/04/28 00:26:21;;;;;;;17.25;11.45;;;;;;;3.31;70.1875;95920.92;;;;
2022/04/28 00:27:22;;;;;;;17.25;11.45;;;;;;;3.31;70.1875;95920.92;;;;
2022/04/28 00:28:22;;;;;;;18.3;12.15;;;;;;;3.19;70.41016;95917.81;;;;
2022/04/28 00:29:23;;;;;;;18.3;12.15;;;;;;;3.19;70.41016;95917.81;;;;
2022/04/28 00:30:23;;;;;;;18.3;12.15;;;;;;;3.19;70.41016;95917.81;;;;
2022/04/28 00:31:24;;;;;;;18.3;12.15;;;;;;;3.19;70.41016;95917.81;;;;
2022/04/28 00:32:25;;;;;;;18.3;12.15;;;;;;;3.19;70.41016;95917.81;;;;
2022/04/28 00:33:27;;;;;;;18.3;12.15;;;;;;;3.19;70.41016;95917.81;;;;
2022/04/28 00:34:27;;;;;;;18.3;12.15;;;;;;;3.19;70.41016;95917.81;;;;
2022/04/28 00:35:28;;;;;;;18.3;12.15;;;;;;;3.19;70.41016;95917.81;;;;
2022/04/28 00:36:28;;;;;;;18.3;12.15;;;;;;;3.19;70.41016;95917.81;;;;
2022/04/28 00:37:29;;;;;;;18.3;12.15;;;;;;;3.19;70.41016;95917.81;;;;
2022/04/28 00:38:29;;;;;;;16;10.9;;;;;;;3.1;70.58398;95920.68;;;;
2022/04/28 00:39:30;;;;;;;16;10.9;;;;;;;3.1;70.58398;95920.68;;;;
2022/04/28 00:40:30;;;;;;;16;10.9;;;;;;;3.1;70.58398;95920.68;;;;
2022/04/28 00:41:31;;;;;;;16;10.9;;;;;;;3.1;70.58398;95920.68;;;;
2022/04/28 00:42:32;;;;;;;16;10.9;;;;;;;3.1;70.58398;95920.68;;;;
2022/04/28 00:43:33;;;;;;;16;10.9;;;;;;;3.1;70.58398;95920.68;;;;
2022/04/28 00:44:33;;;;;;;16;10.9;;;;;;;3.1;70.58398;95920.68;;;;
2022/04/28 00:45:33;;;;;;;16;10.9;;;;;;;3.1;70.58398;95920.68;;;;
2022/04/28 00:46:35;;;;;;;16;10.9;;;;;;;3.1;70.58398;95920.68;;;;
2022/04/28 00:52:36;;;;;;;16.15;10.55;;;;;;;3.05;70.69238;95926.14;;;;
2022/04/28 00:53:36;;;;;;;16.15;10.55;;;;;;;3.05;70.69238;95926.14;;;;
2022/04/28 00:54:41;;;;;;;16.15;10.55;;;;;;;3.05;70.69238;95926.14;;;;
2022/04/28 00:55:42;;;;;;;16.15;10.55;;;;;;;3.05;70.69238;95926.14;;;;
2022/04/28 00:56:43;;;;;;;16.15;10.55;;;;;;;3.05;70.69238;95926.14;;;;
2022/04/28 00:57:45;;;;;;;16.15;10.55;;;;;;;3.05;70.69238;95926.14;;;;
2022/04/28 00:58:47;;;;;;;16.15;10.55;;;;;;;3.05;70.69238;95926.14;;;;
2022/04/28 00:59:48;;;;;;;14.6;10.7;;;;;;;2.91;70.77441;95930.45;;;;
2022/04/28 01:00:50;;;;;;;14.6;10.7;;;;;;;2.91;70.77441;95930.45;;;;
2022/04/28 01:01:51;;;;;;;14.6;10.7;;;;;;;2.91;70.77441;95930.45;;;;
2022/04/28 01:02:51;;;;;;;14.6;10.7;;;;;;;2.91;70.77441;95930.45;;;;
2022/04/28 01:03:52;;;;;;;14.6;10.7;;;;;;;2.91;70.77441;95930.45;;;;
2022/04/28 01:04:52;;;;;;;14.6;10.7;;;;;;;2.91;70.77441;95930.45;;;;
2022/04/28 01:05:53;;;;;;;14.6;10.7;;;;;;;2.91;70.77441;95930.45;;;;
2022/04/28 01:06:53;;;;;;;14.6;10.7;;;;;;;2.91;70.77441;95930.45;;;;
2022/04/28 01:07:54;;;;;;;14.6;10.7;;;;;;;2.91;70.77441;95930.45;;;;
2022/04/28 01:08:54;;;;;;;14.6;10.7;;;;;;;2.91;70.77441;95930.45;;;;
2022/04/28 01:09:56;;;;;;;14.6;10.7;;;;;;;2.91;70.77441;95930.45;;;;
2022/04/28 01:10:57;;;;;;;14.25;10.25;;;;;;;2.81;71.01074;95922.66;;;;
2022/04/28 01:11:57;;;;;;;14.25;10.25;;;;;;;2.81;71.01074;95922.66;;;;
2022/04/28 01:12:58;;;;;;;14.25;10.25;;;;;;;2.81;71.01074;95922.66;;;;
2022/04/28 01:13:58;;;;;;;14.25;10.25;;;;;;;2.81;71.01074;95922.66;;;;
2022/04/28 01:14:59;;;;;;;14.25;10.25;;;;;;;2.81;71.01074;95922.66;;;;
2022/04/28 01:15:59;;;;;;;14.25;10.25;;;;;;;2.81;71.01074;95922.66;;;;
2022/04/28 01:17:00;;;;;;;14.25;10.25;;;;;;;2.81;71.01074;95922.66;;;;
2022/04/28 01:18:01;;;;;;;14.25;10.25;;;;;;;2.81;71.01074;95922.66;;;;
2022/04/28 01:19:01;;;;;;;14.25;10.25;;;;;;;2.81;71.01074;95922.66;;;;
2022/04/28 01:20:02;;;;;;;14.25;10.25;;;;;;;2.81;71.01074;95922.66;;;;
2022/04/28 01:21:04;;;;;;;15.8;10.35;;;;;;;2.67;71.12402;95918.95;;;;
2022/04/28 01:22:05;;;;;;;15.8;10.35;;;;;;;2.67;71.12402;95918.95;;;;
2022/04/28 01:23:06;;;;;;;15.8;10.35;;;;;;;2.67;71.12402;95918.95;;;;
2022/04/28 01:24:07;;;;;;;15.8;10.35;;;;;;;2.67;71.12402;95918.95;;;;
2022/04/28 01:25:07;;;;;;;15.8;10.35;;;;;;;2.67;71.12402;95918.95;;;;
2022/04/28 01:26:10;;;;;;;15.8;10.35;;;;;;;2.67;71.12402;95918.95;;;;
2022/04/28 01:27:14;;;;;;;15.8;10.35;;;;;;;2.67;71.12402;95918.95;;;;
2022/04/28 01:28:14;;;;;;;15.8;10.35;;;;;;;2.67;71.12402;95918.95;;;;
2022/04/28 01:29:15;;;;;;;15.8;10.35;;;;;;;2.67;71.12402;95918.95;;;;
2022/04/28 01:30:15;;;;;;;15.8;10.35;;;;;;;2.67;71.12402;95918.95;;;;
2022/04/28 01:31:16;;;;;;;15.8;10.35;;;;;;;2.67;71.12402;95918.95;;;;
2022/04/28 01:32:16;;;;;;;16.35;10;;;;;;;2.55;71.36719;95919.01;;;;
2022/04/28 01:33:17;;;;;;;16.35;10;;;;;;;2.55;71.36719;95919.01;;;;
2022/04/28 01:34:17;;;;;;;16.35;10;;;;;;;2.55;71.36719;95919.01;;;;
2022/04/28 01:35:18;;;;;;;16.35;10;;;;;;;2.55;71.36719;95919.01;;;;
2022/04/28 01:36:18;;;;;;;16.35;10;;;;;;;2.55;71.36719;95919.01;;;;
2022/04/28 01:37:19;;;;;;;16.35;10;;;;;;;2.55;71.36719;95919.01;;;;
2022/04/28 01:38:20;;;;;;;16.35;10;;;;;;;2.55;71.36719;95919.01;;;;
2022/04/28 01:39:20;;;;;;;16.35;10;;;;;;;2.55;71.36719;95919.01;;;;
2022/04/28 01:40:21;;;;;;;16.35;10;;;;;;;2.55;71.36719;95919.01;;;;
2022/04/28 01:41:21;;;;;;;16.35;10;;;;;;;2.55;71.36719;95919.01;;;;
2022/04/28 01:42:22;;;;;;;16.35;10;;;;;;;2.55;71.36719;95919.01;;;;
2022/04/28 01:43:23;;;;;;;16.35;10;;;;;;;2.55;71.36719;95919.01;;;;
2022/04/28 01:44:24;;;;;;;16.35;10;;;;;;;2.55;71.36719;95919.01;;;;
2022/04/28 01:45:24;;;;;;;16.35;10;;;;;;;2.55;71.36719;95919.01;;;;
2022/04/28 01:46:25;;;;;;;16.35;10;;;;;;;2.55;71.36719;95919.01;;;;
2022/04/28 01:47:25;;;;;;;16.35;10;;;;;;;2.55;71.36719;95919.01;;;;
2022/04/28 01:48:25;;;;;;;16.35;10;;;;;;;2.55;71.36719;95919.01;;;;
2022/04/28 01:49:26;;;;;;;16.35;10;;;;;;;2.55;71.36719;95919.01;;;;
2022/04/28 01:50:27;;;;;;;16.35;10;;;;;;;2.55;71.36719;95919.01;;;;
2022/04/28 01:56:40;;;;;;;15.55;10.15;;;;;;;2.29;71.74414;95917.49;;;;
2022/04/28 01:57:40;;;;;;;15.55;10.15;;;;;;;2.29;71.74414;95917.49;;;;
2022/04/28 01:58:41;;;;;;;15.55;10.15;;;;;;;2.29;71.74414;95917.49;;;;
2022/04/28 01:59:41;;;;;;;15.55;10.15;;;;;;;2.29;71.74414;95917.49;;;;
2022/04/28 02:00:42;;;;;;;15.55;10.15;;;;;;;2.29;71.74414;95917.49;;;;
2022/04/28 02:01:42;;;;;;;15.55;10.15;;;;;;;2.29;71.74414;95917.49;;;;
2022/04/28 02:02:43;;;;;;;15.55;10.15;;;;;;;2.29;71.74414;95917.49;;;;
2022/04/28 02:03:44;;;;;;;15.55;10.15;;;;;;;2.29;71.74414;95917.49;;;;
2022/04/28 02:04:45;;;;;;;16.8;10.3;;;;;;;2.19;71.87305;95921.75;;;;
2022/04/28 02:05:45;;;;;;;16.8;10.3;;;;;;;2.19;71.87305;95921.75;;;;
2022/04/28 02:06:46;;;;;;;16.8;10.3;;;;;;;2.19;71.87305;95921.75;;;;
2022/04/28 02:07:46;;;;;;;16.8;10.3;;;;;;;2.19;71.87305;95921.75;;;;
2022/04/28 02:08:47;;;;;;;16.8;10.3;;;;;;;2.19;71.87305;95921.75;;;;
2022/04/28 02:09:47;;;;;;;16.8;10.3;;;;;;;2.19;71.87305;95921.75;;;;
2022/04/28 02:10:48;;;;;;;16.8;10.3;;;;;;;2.19;71.87305;95921.75;;;;
2022/04/28 02:11:49;;;;;;;16.8;10.3;;;;;;;2.19;71.87305;95921.75;;;;
2022/04/28 02:12:50;;;;;;;16.8;10.3;;;;;;;2.19;71.87305;95921.75;;;;
2022/04/28 02:13:50;;;;;;;16.8;10.3;;;;;;;2.19;71.87305;95921.75;;;;
2022/04/28 02:14:51;;;;;;;15.2;10.45;;;;;;;2.06;72.03027;95920.53;;;;
2022/04/28 02:15:52;;;;;;;15.2;10.45;;;;;;;2.06;72.03027;95920.53;;;;
2022/04/28 02:16:53;;;;;;;15.2;10.45;;;;;;;2.06;72.03027;95920.53;;;;
2022/04/28 02:17:53;;;;;;;15.2;10.45;;;;;;;2.06;72.03027;95920.53;;;;
2022/04/28 02:18:54;;;;;;;15.2;10.45;;;;;;;2.06;72.03027;95920.53;;;;
2022/04/28 02:19:54;;;;;;;15.2;10.45;;;;;;;2.06;72.03027;95920.53;;;;
2022/04/28 02:20:55;;;;;;;15.2;10.45;;;;;;;2.06;72.03027;95920.53;;;;
2022/04/28 02:21:55;;;;;;;15.2;10.45;;;;;;;2.06;72.03027;95920.53;;;;
2022/04/28 02:22:56;;;;;;;15.2;10.45;;;;;;;2.06;72.03027;95920.53;;;;
2022/04/28 02:23:56;;;;;;;15.2;10.45;;;;;;;2.06;72.03027;95920.53;;;;
2022/04/28 02:24:57;;;;;;;15.2;10.45;;;;;;;2.06;72.03027;95920.53;;;;
2022/04/28 02:25:57;;;;;;;14.95;10.05;;;;;;;2.03;72.05762;95918.2;;;;
2022/04/28 02:26:58;;;;;;;14.95;10.05;;;;;;;2.03;72.05762;95918.2;;;;
2022/04/28 02:27:58;;;;;;;14.95;10.05;;;;;;;2.03;72.05762;95918.2;;;;
2022/04/28 02:28:59;;;;;;;14.95;10.05;;;;;;;2.03;72.05762;95918.2;;;;
2022/04/28 02:29:59;;;;;;;14.95;10.05;;;;;;;2.03;72.05762;95918.2;;;;
2022/04/28 02:31:00;;;;;;;14.95;10.05;;;;;;;2.03;72.05762;95918.2;;;;
2022/04/28 02:32:00;;;;;;;14.95;10.05;;;;;;;2.03;72.05762;95918.2;;;;
2022/04/28 02:33:08;;;;;;;14.95;10.05;;;;;;;2.03;72.05762;95918.2;;;;
2022/04/28 02:34:09;;;;;;;14.95;10.05;;;;;;;2.03;72.05762;95918.2;;;;
2022/04/28 02:35:09;;;;;;;14.95;10.05;;;;;;;2.03;72.05762;95918.2;;;;
2022/04/28 02:36:10;;;;;;;16.4;11;;;;;;;1.95;72.04492;95928.78;;;;
2022/04/28 02:37:10;;;;;;;16.4;11;;;;;;;1.95;72.04492;95928.78;;;;
2022/04/28 02:38:11;;;;;;;16.4;11;;;;;;;1.95;72.04492;95928.78;;;;
2022/04/28 02:39:12;;;;;;;16.4;11;;;;;;;1.95;72.04492;95928.78;;;;
2022/04/28 02:40:16;;;;;;;16.4;11;;;;;;;1.95;72.04492;95928.78;;;;
2022/04/28 02:41:21;;;;;;;16.4;11;;;;;;;1.95;72.04492;95928.78;;;;
2022/04/28 02:42:21;;;;;;;16.4;11;;;;;;;1.95;72.04492;95928.78;;;;
2022/04/28 02:43:22;;;;;;;16.4;11;;;;;;;1.95;72.04492;95928.78;;;;
2022/04/28 02:44:23;;;;;;;16.4;11;;;;;;;1.95;72.04492;95928.78;;;;
2022/04/28 02:45:24;;;;;;;16.4;11;;;;;;;1.95;72.04492;95928.78;;;;
2022/04/28 02:46:24;;;;;;;16.4;11;;;;;;;1.95;72.04492;95928.78;;;;
2022/04/28 02:47:25;;;;;;;18.7;11.5;;;;;;;1.85;72.18457;95939.69;;;;
2022/04/28 02:48:25;;;;;;;18.7;11.5;;;;;;;1.85;72.18457;95939.69;;;;
2022/04/28 02:49:26;;;;;;;18.7;11.5;;;;;;;1.85;72.18457;95939.69;;;;
2022/04/28 02:50:26;;;;;;;18.7;11.5;;;;;;;1.85;72.18457;95939.69;;;;
2022/04/28 02:51:27;;;;;;;18.7;11.5;;;;;;;1.85;72.18457;95939.69;;;;
2022/04/28 02:52:27;;;;;;;18.7;11.5;;;;;;;1.85;72.18457;95939.69;;;;
2022/04/28 02:53:29;;;;;;;18.7;11.5;;;;;;;1.85;72.18457;95939.69;;;;
2022/04/28 02:54:30;;;;;;;18.7;11.5;;;;;;;1.85;72.18457;95939.69;;;;
2022/04/28 02:55:30;;;;;;;18.7;11.5;;;;;;;1.85;72.18457;95939.69;;;;
2022/04/28 02:56:31;;;;;;;18.7;11.5;;;;;;;1.85;72.18457;95939.69;;;;
2022/04/28 02:57:32;;;;;;;18.65;12.7;;;;;;;1.7;72.3584;95931.6;;;;
2022/04/28 02:58:32;;;;;;;18.65;12.7;;;;;;;1.7;72.3584;95931.6;;;;
2022/04/28 02:59:33;;;;;;;18.65;12.7;;;;;;;1.7;72.3584;95931.6;;;;
2022/04/28 03:00:34;;;;;;;18.65;12.7;;;;;;;1.7;72.3584;95931.6;;;;
2022/04/28 03:01:34;;;;;;;18.65;12.7;;;;;;;1.7;72.3584;95931.6;;;;
2022/04/28 03:02:35;;;;;;;18.65;12.7;;;;;;;1.7;72.3584;95931.6;;;;
2022/04/28 03:03:35;;;;;;;18.65;12.7;;;;;;;1.7;72.3584;95931.6;;;;
2022/04/28 03:04:36;;;;;;;18.65;12.7;;;;;;;1.7;72.3584;95931.6;;;;
2022/04/28 03:10:46;;;;;;;18.65;12.7;;;;;;;1.7;72.3584;95931.6;;;;
2022/04/28 03:11:47;;;;;;;18.65;12.7;;;;;;;1.7;72.3584;95931.6;;;;
2022/04/28 03:12:47;;;;;;;18.65;12.7;;;;;;;1.7;72.3584;95931.6;;;;
2022/04/28 03:13:48;;;;;;;18.65;12.7;;;;;;;1.7;72.3584;95931.6;;;;
2022/04/28 03:14:48;;;;;;;18.65;12.7;;;;;;;1.7;72.3584;95931.6;;;;
2022/04/28 03:15:49;;;;;;;18.65;12.7;;;;;;;1.7;72.3584;95931.6;;;;
2022/04/28 03:16:50;;;;;;;18.65;12.7;;;;;;;1.7;72.3584;95931.6;;;;
2022/04/28 03:17:50;;;;;;;18.65;12.7;;;;;;;1.7;72.3584;95931.6;;;;
2022/04/28 03:18:51;;;;;;;17.6;11.6;;;;;;;1.5;72.76465;95939.98;;;;
2022/04/28 03:19:51;;;;;;;17.6;11.6;;;;;;;1.5;72.76465;95939.98;;;;
2022/04/28 03:20:52;;;;;;;17.6;11.6;;;;;;;1.5;72.76465;95939.98;;;;
2022/04/28 03:21:52;;;;;;;17.6;11.6;;;;;;;1.5;72.76465;95939.98;;;;
2022/04/28 03:22:53;;;;;;;17.6;11.6;;;;;;;1.5;72.76465;95939.98;;;;
2022/04/28 03:23:54;;;;;;;17.6;11.6;;;;;;;1.5;72.76465;95939.98;;;;
2022/04/28 03:24:54;;;;;;;17.6;11.6;;;;;;;1.5;72.76465;95939.98;;;;
2022/04/28 03:25:55;;;;;;;17.6;11.6;;;;;;;1.5;72.76465;95939.98;;;;
2022/04/28 03:26:55;;;;;;;17.6;11.6;;;;;;;1.5;72.76465;95939.98;;;;
2022/04/28 03:27:56;;;;;;;17.6;11.6;;;;;;;1.5;72.76465;95939.98;;;;
2022/04/28 03:28:56;;;;;;;17.6;11.6;;;;;;;1.5;72.76465;95939.98;;;;
2022/04/28 03:29:58;;;;;;;18.3;10.85;;;;;;;1.41;72.875;95940.55;;;;
2022/04/28 03:30:58;;;;;;;18.3;10.85;;;;;;;1.41;72.875;95940.55;;;;
2022/04/28 03:31:58;;;;;;;18.3;10.85;;;;;;;1.41;72.875;95940.55;;;;
2022/04/28 03:32:59;;;;;;;18.3;10.85;;;;;;;1.41;72.875;95940.55;;;;
2022/04/28 03:34:00;;;;;;;18.3;10.85;;;;;;;1.41;72.875;95940.55;;;;
2022/04/28 03:35:00;;;;;;;18.3;10.85;;;;;;;1.41;72.875;95940.55;;;;
2022/04/28 03:36:01;;;;;;;18.3;10.85;;;;;;;1.41;72.875;95940.55;;;;
2022/04/28 03:37:01;;;;;;;18.3;10.85;;;;;;;1.41;72.875;95940.55;;;;
2022/04/28 03:38:03;;;;;;;18.3;10.85;;;;;;;1.41;72.875;95940.55;;;;
2022/04/28 03:39:04;;;;;;;18.3;10.85;;;;;;;1.41;72.875;95940.55;;;;
2022/04/28 03:40:05;;;;;;;18.3;10.85;;;;;;;1.41;72.875;95940.55;;;;
2022/04/28 03:41:07;;;;;;;18.2;11.1;;;;;;;1.33;73.00977;95939.12;;;;
2022/04/28 03:42:07;;;;;;;18.2;11.1;;;;;;;1.33;73.00977;95939.12;;;;
2022/04/28 03:43:09;;;;;;;18.2;11.1;;;;;;;1.33;73.00977;95939.12;;;;
2022/04/28 03:44:10;;;;;;;18.2;11.1;;;;;;;1.33;73.00977;95939.12;;;;
2022/04/28 03:45:10;;;;;;;18.2;11.1;;;;;;;1.33;73.00977;95939.12;;;;
2022/04/28 03:46:11;;;;;;;18.2;11.1;;;;;;;1.33;73.00977;95939.12;;;;
2022/04/28 03:47:12;;;;;;;18.2;11.1;;;;;;;1.33;73.00977;95939.12;;;;
2022/04/28 03:48:14;;;;;;;18.2;11.1;;;;;;;1.33;73.00977;95939.12;;;;
2022/04/28 03:49:14;;;;;;;18.2;11.1;;;;;;;1.33;73.00977;95939.12;;;;
2022/04/28 03:50:14;;;;;;;18.2;11.1;;;;;;;1.33;73.00977;95939.12;;;;
2022/04/28 03:51:15;;;;;;;17.25;10.2;;;;;;;1.24;73.10938;95948.08;;;;
2022/04/28 03:52:16;;;;;;;17.25;10.2;;;;;;;1.24;73.10938;95948.08;;;;
2022/04/28 03:53:16;;;;;;;17.25;10.2;;;;;;;1.24;73.10938;95948.08;;;;
2022/04/28 03:54:16;;;;;;;17.25;10.2;;;;;;;1.24;73.10938;95948.08;;;;
2022/04/28 03:55:17;;;;;;;17.25;10.2;;;;;;;1.24;73.10938;95948.08;;;;
2022/04/28 03:56:17;;;;;;;17.25;10.2;;;;;;;1.24;73.10938;95948.08;;;;
2022/04/28 03:57:18;;;;;;;17.25;10.2;;;;;;;1.24;73.10938;95948.08;;;;
2022/04/28 03:58:18;;;;;;;17.25;10.2;;;;;;;1.24;73.10938;95948.08;;;;
2022/04/28 03:59:19;;;;;;;17.25;10.2;;;;;;;1.24;73.10938;95948.08;;;;
2022/04/28 04:00:19;;;;;;;17.25;10.2;;;;;;;1.24;73.10938;95948.08;;;;
2022/04/28 04:01:20;;;;;;;17.25;10.2;;;;;;;1.24;73.10938;95948.08;;;;
2022/04/28 04:02:20;;;;;;;17.25;10.2;;;;;;;1.24;73.10938;95948.08;;;;
2022/04/28 04:03:21;;;;;;;17.25;10.2;;;;;;;1.24;73.10938;95948.08;;;;
2022/04/28 04:04:22;;;;;;;17.25;10.2;;;;;;;1.24;73.10938;95948.08;;;;
2022/04/28 04:05:22;;;;;;;17.25;10.2;;;;;;;1.24;73.10938;95948.08;;;;
2022/04/28 04:06:23;;;;;;;17.25;10.2;;;;;;;1.24;73.10938;95948.08;;;;
2022/04/28 04:07:23;;;;;;;17.25;10.2;;;;;;;1.24;73.10938;95948.08;;;;
2022/04/28 04:08:28;;;;;;;17.25;10.2;;;;;;;1.24;73.10938;95948.08;;;;
2022/04/28 04:09:29;;;;;;;17.25;10.2;;;;;;;1.24;73.10938;95948.08;;;;
2022/04/28 04:10:29;;;;;;;17.25;10.2;;;;;;;1.24;73.10938;95948.08;;;;
2022/04/28 04:11:30;;;;;;;17.25;10.2;;;;;;;1.24;73.10938;95948.08;;;;
2022/04/28 04:12:30;;;;;;;16.65;10.2;;;;;;;1.11;73.35938;95965.01;;;;
2022/04/28 04:13:31;;;;;;;16.65;10.2;;;;;;;1.11;73.35938;95965.01;;;;
2022/04/28 04:14:32;;;;;;;16.65;10.2;;;;;;;1.11;73.35938;95965.01;;;;
2022/04/28 04:15:32;;;;;;;16.65;10.2;;;;;;;1.11;73.35938;95965.01;;;;
2022/04/28 04:16:33;;;;;;;16.65;10.2;;;;;;;1.11;73.35938;95965.01;;;;
2022/04/28 04:17:34;;;;;;;16.65;10.2;;;;;;;1.11;73.35938;95965.01;;;;
2022/04/28 04:18:43;;;;;;;16.65;10.2;;;;;;;1.11;73.35938;95965.01;;;;
2022/04/28 04:19:43;;;;;;;16.65;10.2;;;;;;;1.11;73.35938;95965.01;;;;
2022/04/28 04:20:44;;;;;;;16.65;10.2;;;;;;;1.11;73.35938;95965.01;;;;
2022/04/28 04:21:45;;;;;;;16.65;10.2;;;;;;;1.11;73.35938;95965.01;;;;
2022/04/28 04:22:45;;;;;;;16.65;10.2;;;;;;;1.11;73.35938;95965.01;;;;
2022/04/28 04:23:46;;;;;;;17.65;10.35;;;;;;;1.13;73.41504;95975.9;;;;
2022/04/28 04:24:46;;;;;;;17.65;10.35;;;;;;;1.13;73.41504;95975.9;;;;
2022/04/28 04:25:47;;;;;;;17.65;10.35;;;;;;;1.13;73.41504;95975.9;;;;
2022/04/28 04:26:47;;;;;;;17.65;10.35;;;;;;;1.13;73.41504;95975.9;;;;
2022/04/28 04:27:48;;;;;;;17.65;10.35;;;;;;;1.13;73.41504;95975.9;;;;
2022/04/28 04:28:48;;;;;;;17.65;10.35;;;;;;;1.13;73.41504;95975.9;;;;
2022/04/28 04:29:49;;;;;;;17.65;10.35;;;;;;;1.13;73.41504;95975.9;;;;
2022/04/28 04:35:59;;;;;;;16.35;10.55;;;;;;;1.19;73.49805;95980.14;;;;
2022/04/28 04:36:59;;;;;;;16.35;10.55;;;;;;;1.19;73.49805;95980.14;;;;
2022/04/28 04:38:00;;;;;;;16.35;10.55;;;;;;;1.19;73.49805;95980.14;;;;
2022/04/28 04:39:00;;;;;;;16.35;10.55;;;;;;;1.19;73.49805;95980.14;;;;
2022/04/28 04:40:01;;;;;;;16.35;10.55;;;;;;;1.19;73.49805;95980.14;;;;
2022/04/28 04:41:01;;;;;;;16.35;10.55;;;;;;;1.19;73.49805;95980.14;;;;
2022/04/28 04:42:02;;;;;;;16.35;10.55;;;;;;;1.19;73.49805;95980.14;;;;
2022/04/28 04:43:05;;;;;;;16.35;10.55;;;;;;;1.19;73.49805;95980.14;;;;
2022/04/28 04:44:12;;;;;;;16.35;10.55;;;;;;;1.19;73.49805;95980.14;;;;
2022/04/28 04:45:13;;;;;;;16.35;10.55;;;;;;;1.19;73.49805;95980.14;;;;
2022/04/28 04:46:14;;;;;;;16.35;10.55;;;;;;;1.19;73.49805;95980.14;;;;
2022/04/28 04:47:14;;;;;;;16.35;10.55;;;;;;;1.19;73.49805;95980.14;;;;
2022/04/28 04:48:15;;;;;;;16.35;10.55;;;;;;;1.19;73.49805;95980.14;;;;
2022/04/28 04:49:15;;;;;;;16.35;10.55;;;;;;;1.19;73.49805;95980.14;;;;
2022/04/28 04:50:16;;;;;;;16.35;10.55;;;;;;;1.19;73.49805;95980.14;;;;
2022/04/28 04:51:16;;;;;;;16.35;10.55;;;;;;;1.19;73.49805;95980.14;;;;
2022/04/28 04:52:17;;;;;;;16.35;10.55;;;;;;;1.19;73.49805;95980.14;;;;
2022/04/28 04:53:17;;;;;;;16.35;10.55;;;;;;;1.19;73.49805;95980.14;;;;
2022/04/28 04:54:17;;;;;;;16.35;10.55;;;;;;;1.19;73.49805;95980.14;;;;
2022/04/28 04:55:18;;;;;;;19.65;12.45;;;;;;;1.46;73.56348;95998.5;;;;
2022/04/28 04:56:19;;;;;;;19.65;12.45;;;;;;;1.46;73.56348;95998.5;;;;
2022/04/28 04:57:19;;;;;;;19.65;12.45;;;;;;;1.46;73.56348;95998.5;;;;
2022/04/28 04:58:20;;;;;;;19.65;12.45;;;;;;;1.46;73.56348;95998.5;;;;
2022/04/28 04:59:20;;;;;;;19.65;12.45;;;;;;;1.46;73.56348;95998.5;;;;
2022/04/28 05:00:21;;;;;;;19.65;12.45;;;;;;;1.46;73.56348;95998.5;;;;
2022/04/28 05:01:21;;;;;;;19.65;12.45;;;;;;;1.46;73.56348;95998.5;;;;
2022/04/28 05:02:23;;;;;;;19.65;12.45;;;;;;;1.46;73.56348;95998.5;;;;
2022/04/28 05:03:24;;;;;;;19.65;12.45;;;;;;;1.46;73.56348;95998.5;;;;
2022/04/28 05:04:24;;;;;;;19.65;12.45;;;;;;;1.46;73.56348;95998.5;;;;
2022/04/28 05:05:25;;;;;;;19.65;12.45;;;;;;;1.46;73.56348;95998.5;;;;
2022/04/28 05:06:25;;;;;;;19.65;12.45;;;;;;;1.46;73.56348;95998.5;;;;
2022/04/28 05:07:26;;;;;;;19.65;12.45;;;;;;;1.46;73.56348;95998.5;;;;
2022/04/28 05:08:29;;;;;;;19.65;12.45;;;;;;;1.46;73.56348;95998.5;;;;
2022/04/28 05:09:29;;;;;;;19.65;12.45;;;;;;;1.46;73.56348;95998.5;;;;
2022/04/28 05:10:30;;;;;;;19.65;12.45;;;;;;;1.46;73.56348;95998.5;;;;
2022/04/28 05:11:30;;;;;;;19.65;12.45;;;;;;;1.46;73.56348;95998.5;;;;
2022/04/28 05:12:31;;;;;;;19.65;12.45;;;;;;;1.46;73.56348;95998.5;;;;
2022/04/28 05:13:31;;;;;;;19.65;12.45;;;;;;;1.46;73.56348;95998.5;;;;
2022/04/28 05:14:32;;;;;;;19.65;12.45;;;;;;;1.46;73.56348;95998.5;;;;
2022/04/28 05:15:33;;;;;;;19.65;12.45;;;;;;;1.46;73.56348;95998.5;;;;
2022/04/28 05:16:34;;;;;;;24.45;14.5;;;;;;;2.24;73.19434;96015.73;;;;
2022/04/28 05:17:34;;;;;;;24.45;14.5;;;;;;;2.24;73.19434;96015.73;;;;
2022/04/28 05:18:35;;;;;;;24.45;14.5;;;;;;;2.24;73.19434;96015.73;;;;
2022/04/28 05:19:35;;;;;;;24.45;14.5;;;;;;;2.24;73.19434;96015.73;;;;
2022/04/28 05:20:36;;;;;;;24.45;14.5;;;;;;;2.24;73.19434;96015.73;;;;
2022/04/28 05:21:36;;;;;;;24.45;14.5;;;;;;;2.24;73.19434;96015.73;;;;
2022/04/28 05:22:37;;;;;;;24.45;14.5;;;;;;;2.24;73.19434;96015.73;;;;
2022/04/28 05:23:37;;;;;;;24.45;14.5;;;;;;;2.24;73.19434;96015.73;;;;
2022/04/28 05:24:38;;;;;;;24.45;14.5;;;;;;;2.24;73.19434;96015.73;;;;
2022/04/28 05:25:38;;;;;;;24.45;14.5;;;;;;;2.24;73.19434;96015.73;;;;
2022/04/28 05:26:39;;;;;;;24.45;14.5;;;;;;;2.24;73.19434;96015.73;;;;
2022/04/28 05:27:39;;;;;;;37.4;20.95;;;;;;;2.72;73.06836;96034.33;;;;
2022/04/28 05:28:40;;;;;;;37.4;20.95;;;;;;;2.72;73.06836;96034.33;;;;
2022/04/28 05:29:40;;;;;;;37.4;20.95;;;;;;;2.72;73.06836;96034.33;;;;
2022/04/28 05:30:40;;;;;;;37.4;20.95;;;;;;;2.72;73.06836;96034.33;;;;
2022/04/28 05:31:41;;;;;;;37.4;20.95;;;;;;;2.72;73.06836;96034.33;;;;
2022/04/28 05:32:41;;;;;;;37.4;20.95;;;;;;;2.72;73.06836;96034.33;;;;
2022/04/28 05:33:42;;;;;;;37.4;20.95;;;;;;;2.72;73.06836;96034.33;;;;
2022/04/28 05:34:42;;;;;;;37.4;20.95;;;;;;;2.72;73.06836;96034.33;;;;
2022/04/28 05:35:43;;;;;;;37.4;20.95;;;;;;;2.72;73.06836;96034.33;;;;
2022/04/28 05:36:45;;;;;;;37.4;20.95;;;;;;;2.72;73.06836;96034.33;;;;
2022/04/28 05:37:45;;;;;;;37.4;20.95;;;;;;;2.72;73.06836;96034.33;;;;
2022/04/28 05:38:46;;;;;;;52.55001;27.2;;;;;;;3.48;73.1543;96043.92;;;;
2022/04/28 05:39:47;;;;;;;52.55001;27.2;;;;;;;3.48;73.1543;96043.92;;;;
2022/04/28 05:40:48;;;;;;;52.55001;27.2;;;;;;;3.48;73.1543;96043.92;;;;
2022/04/28 05:41:49;;;;;;;52.55001;27.2;;;;;;;3.48;73.1543;96043.92;;;;
2022/04/28 05:48:00;;;;;;;52.55001;27.2;;;;;;;3.48;73.1543;96043.92;;;;
2022/04/28 05:49:02;;;;;;;65.74998;34.7;;;;;;;4.29;73.21875;96045.1;;;;
2022/04/28 05:50:02;;;;;;;65.74998;34.7;;;;;;;4.29;73.21875;96045.1;;;;
2022/04/28 05:51:03;;;;;;;65.74998;34.7;;;;;;;4.29;73.21875;96045.1;;;;
2022/04/28 05:52:04;;;;;;;65.74998;34.7;;;;;;;4.29;73.21875;96045.1;;;;
2022/04/28 05:53:04;;;;;;;65.74998;34.7;;;;;;;4.29;73.21875;96045.1;;;;
2022/04/28 05:54:05;;;;;;;65.74998;34.7;;;;;;;4.29;73.21875;96045.1;;;;
2022/04/28 05:55:06;;;;;;;65.74998;34.7;;;;;;;4.29;73.21875;96045.1;;;;
2022/04/28 05:56:07;;;;;;;65.74998;34.7;;;;;;;4.29;73.21875;96045.1;;;;
2022/04/28 05:57:07;;;;;;;65.74998;34.7;;;;;;;4.29;73.21875;96045.1;;;;
2022/04/28 05:58:08;;;;;;;65.74998;34.7;;;;;;;4.29;73.21875;96045.1;;;;
2022/04/28 05:59:09;;;;;;;65.74998;34.7;;;;;;;4.29;73.21875;96045.1;;;;
2022/04/28 06:00:10;;;;;;;64.85;35.4;;;;;;;5.08;73.72168;96052.14;;;;
2022/04/28 06:01:11;;;;;;;64.85;35.4;;;;;;;5.08;73.72168;96052.14;;;;
2022/04/28 06:02:12;;;;;;;64.85;35.4;;;;;;;5.08;73.72168;96052.14;;;;
2022/04/28 06:03:12;;;;;;;64.85;35.4;;;;;;;5.08;73.72168;96052.14;;;;
2022/04/28 06:04:13;;;;;;;64.85;35.4;;;;;;;5.08;73.72168;96052.14;;;;
2022/04/28 06:05:13;;;;;;;64.85;35.4;;;;;;;5.08;73.72168;96052.14;;;;
2022/04/28 06:06:14;;;;;;;64.85;35.4;;;;;;;5.08;73.72168;96052.14;;;;
2022/04/28 06:07:16;;;;;;;64.85;35.4;;;;;;;5.08;73.72168;96052.14;;;;
2022/04/28 06:08:16;;;;;;;64.85;35.4;;;;;;;5.08;73.72168;96052.14;;;;
2022/04/28 06:09:17;;;;;;;64.85;35.4;;;;;;;5.08;73.72168;96052.14;;;;
2022/04/28 06:10:17;;;;;;;51.6;32.15001;;;;;;;5.81;74.24023;96062.73;;;;
2022/04/28 06:11:18;;;;;;;51.6;32.15001;;;;;;;5.81;74.24023;96062.73;;;;